52°F Temp
37°F Dewpoint
% Humidity
Temperature
8 MPH
13 KM/H
7 KTS
60°
East North
East

Wind Speed
Clear
Conditions
Pressure 1022.72 (hPa) - 30.2 (in)
Visibility 10.0 (mi) - 16.1 (km)

Current Conditions
KEQY
Location 15.55km (9.66mi)
Metar :KEQY 171553Z AUTO 06007KT 10SM CLR 11/03 A3020 RMK AO2 SLP239 T01110028
Mon 17th February 10:53 am

Airport
  Metar Aviation API Data Provided by https://www.checkwx.com/ CSS/SVG/PHP scripts by weather34.com © 2015-2020